Terminal Aerodrome Forecast
Issued by NWS

Home | Current Version | Previous Version | Text Only | Print | Product List | Glossary On
Versions: 1 2 3 4 5 6 7 8 9 10 11 12 13
690
FTUS43 KJKL 281345 AAB
TAFSME
TAF AMD
KSME 281345Z 2814/2912 VRB03KT 3SM BR VCSH BKN004 OVC010
      TEMPO 2814/2816 6SM -SHRA BR BKN010 BKN050
     FM281600 26006KT 6SM -SHRA VCTS OVC020CB
     FM282300 35008KT P6SM VCTS BKN020CB
     FM290000 36009KT P6SM VCSH BKN035
     FM290800 VRB05KT P6SM BKN008=

USA.gov is the U.S. government's official web portal to all federal, state and local government web resources and services.